Time;durP1;ratioP1;P1;durP2;ratioP2;P2;SDS_P1;SDS_P2;PMS_P1;PMS_P2;Temp;Humidity;BMP_temperature;BMP_pressure;BME280_temperature;BME280_humidity;BME280_pressure;Samples;Min_cycle;Max_cycle;Signal;HPM_P1;HPM_P2
2023/10/09 00:02:43;;;;;;;5.97;3.30;;;11.90;99.90;;;11.14;100.00;101964.13;4186590;28;20029;-77
2023/10/09 00:04:46;;;;;;;6.78;3.20;;;11.80;99.90;;;11.08;100.00;101960.22;4181686;28;20017;-77
2023/10/09 00:06:48;;;;;;;6.40;3.05;;;11.70;99.90;;;11.07;100.00;101963.00;4187624;28;20139;-77
2023/10/09 00:08:54;;;;;;;5.63;2.92;;;11.70;99.90;;;11.03;100.00;101959.78;4186572;28;20035;-77
2023/10/09 00:10:55;;;;;;;7.30;3.30;;;11.70;99.90;;;11.00;100.00;101959.19;4169780;28;20524;-77
2023/10/09 00:12:58;;;;;;;6.95;3.53;;;11.70;99.90;;;10.99;100.00;101958.34;4182265;28;20029;-77
2023/10/09 00:15:09;;;;;;;7.15;3.95;;;11.60;99.90;;;11.00;100.00;101957.41;4187301;28;20033;-77
2023/10/09 00:19:16;;;;;;;5.75;3.13;;;11.60;99.90;;;10.95;100.00;101964.03;4187663;28;20459;-77
2023/10/09 00:21:22;;;;;;;5.95;3.10;;;11.60;99.90;;;10.88;100.00;101961.06;4185730;28;20025;-77
2023/10/09 00:23:25;;;;;;;10.82;3.65;;;11.50;99.90;;;10.85;100.00;101958.69;4185921;28;20513;-77
2023/10/09 00:25:30;;;;;;;4.65;2.95;;;11.50;99.90;;;10.83;100.00;101960.63;4178117;28;20068;-77
2023/10/09 00:27:36;;;;;;;7.25;3.70;;;11.50;99.90;;;10.80;100.00;101957.41;4187064;28;20446;-78
2023/10/09 00:29:43;;;;;;;6.85;2.88;;;11.50;99.90;;;10.80;100.00;101967.94;4187224;28;20132;-77
2023/10/09 00:31:50;;;;;;;6.38;3.33;;;11.50;99.90;;;10.78;100.00;101965.44;4185377;28;20029;-77
2023/10/09 00:33:52;;;;;;;6.38;3.38;;;11.50;99.90;;;10.72;100.00;101962.47;4180417;28;20086;-77
2023/10/09 00:35:55;;;;;;;6.30;3.03;;;11.40;99.90;;;10.66;100.00;101957.72;4187125;28;20116;-77
2023/10/09 00:38:03;;;;;;;5.47;3.10;;;11.40;99.90;;;10.66;100.00;101960.34;4186097;28;20136;-77
2023/10/09 00:40:19;;;;;;;6.50;3.35;;;11.40;99.90;;;10.65;100.00;101956.88;4178148;28;20045;-77
2023/10/09 00:42:30;;;;;;;6.75;4.18;;;11.30;99.90;;;10.72;100.00;101968.56;4183839;28;20056;-77
2023/10/09 00:44:38;;;;;;;8.18;4.00;;;11.30;99.90;;;10.79;100.00;101959.19;4187219;28;20479;-77
2023/10/09 00:46:42;;;;;;;9.40;5.00;;;11.40;99.90;;;10.87;100.00;101959.38;4187063;28;20017;-77
2023/10/09 00:48:47;;;;;;;9.60;5.63;;;11.50;99.90;;;10.96;100.00;101957.81;4185500;28;20032;-77
2023/10/09 00:50:52;;;;;;;7.22;4.22;;;11.50;99.90;;;11.00;100.00;101952.13;4186092;28;20499;-77
2023/10/09 00:53:02;;;;;;;7.30;3.80;;;11.60;99.90;;;11.02;100.00;101955.47;4185467;28;20134;-77
2023/10/09 00:55:08;;;;;;;8.88;4.15;;;11.60;99.90;;;10.99;100.00;101950.44;4185193;28;20504;-77
2023/10/09 00:57:13;;;;;;;7.18;4.07;;;11.60;99.90;;;10.97;100.00;101947.09;4183058;28;20025;-77
2023/10/09 00:59:20;;;;;;;7.20;4.22;;;11.60;99.90;;;10.99;100.00;101950.44;4173854;28;20044;-77
2023/10/09 01:01:26;;;;;;;7.82;3.70;;;11.60;99.90;;;11.01;100.00;101955.59;4185432;28;20506;-77
2023/10/09 01:03:27;;;;;;;7.82;3.65;;;11.60;99.90;;;10.95;100.00;101949.03;4182796;28;20400;-77
2023/10/09 01:05:29;;;;;;;5.68;3.70;;;11.60;99.90;;;10.95;100.00;101950.84;4186873;28;20029;-77
2023/10/09 01:07:31;;;;;;;6.03;3.28;;;11.60;99.90;;;10.92;100.00;101954.56;4185047;28;20068;-77
2023/10/09 01:09:42;;;;;;;6.85;3.22;;;11.60;99.90;;;10.89;100.00;101957.47;4179497;28;20068;-77
2023/10/09 01:11:48;;;;;;;8.65;4.10;;;11.50;99.90;;;10.81;100.00;101951.16;4201838;28;20055;-77
2023/10/09 01:15:51;;;;;;;7.00;3.75;;;11.40;99.90;;;10.78;100.00;101957.50;4185652;28;20021;-77
2023/10/09 01:17:53;;;;;;;7.10;3.70;;;11.40;99.90;;;10.80;100.00;101955.59;4181630;28;20033;-78
2023/10/09 01:19:56;;;;;;;8.75;4.38;;;11.40;99.90;;;10.82;100.00;101955.47;4185328;28;20059;-77
2023/10/09 01:22:04;;;;;;;8.18;4.82;;;11.40;99.90;;;10.85;100.00;101952.56;4175179;28;20104;-77
2023/10/09 01:24:08;;;;;;;10.55;4.90;;;11.40;99.90;;;10.91;100.00;101950.25;4201670;28;20445;-77
2023/10/09 01:26:09;;;;;;;;;;;11.50;99.90;;;10.92;100.00;101949.28;4185438;28;20431;-77
2023/10/09 01:28:10;;;;;;;9.45;4.55;;;11.60;99.90;;;10.93;100.00;101943.03;4185110;28;19909;-77
2023/10/09 01:30:13;;;;;;;9.30;4.38;;;11.50;99.90;;;10.96;100.00;101945.41;4186550;28;20021;-77
2023/10/09 01:32:19;;;;;;;8.50;5.10;;;11.60;99.90;;;11.01;100.00;101948.53;4184857;28;20037;-77
2023/10/09 01:34:44;;;;;;;11.23;5.28;;;11.60;99.90;;;11.08;100.00;101952.31;4183468;28;20029;-77
2023/10/09 01:36:48;;;;;;;6.88;4.82;;;11.60;99.90;;;11.08;100.00;101936.47;4184891;28;20033;-77
2023/10/09 01:38:50;;;;;;;9.82;5.13;;;11.70;99.90;;;11.09;100.00;101935.50;4180421;28;20048;-77
2023/10/09 01:40:51;;;;;;;9.70;5.18;;;11.70;99.90;;;11.13;100.00;101936.09;4186088;28;20041;-77
2023/10/09 01:42:52;;;;;;;8.07;4.97;;;11.70;99.90;;;11.15;100.00;101931.50;4201134;28;20133;-77
2023/10/09 01:44:53;;;;;;;6.50;4.15;;;11.70;99.90;;;11.10;100.00;101934.53;4186245;28;20028;-77
2023/10/09 01:46:56;;;;;;;7.53;4.30;;;11.70;99.90;;;11.04;100.00;101929.78;4184934;28;20017;-77
2023/10/09 01:48:59;;;;;;;6.93;4.35;;;11.70;99.90;;;10.97;100.00;101928.63;4184603;28;20017;-78
2023/10/09 01:51:00;;;;;;;5.45;3.35;;;11.70;99.90;;;10.94;100.00;101934.16;4173409;28;20025;-78
2023/10/09 01:53:02;;;;;;;6.85;3.97;;;11.60;99.90;;;10.92;100.00;101932.63;4184915;28;20131;-78
2023/10/09 01:55:27;;;;;;;6.25;3.60;;;11.60;99.90;;;10.84;100.00;101933.25;4184823;28;20404;-77
2023/10/09 01:57:25;;;;;;;6.15;4.15;;;11.60;99.90;;;10.74;100.00;101920.97;4184714;28;20037;-77
2023/10/09 01:59:25;;;;;;;7.30;4.13;;;11.50;99.90;;;10.71;100.00;101923.84;4185038;28;20021;-77
2023/10/09 02:01:26;;;;;;;6.03;4.40;;;11.40;99.90;;;10.65;100.00;101930.47;4185969;28;20142;-77
2023/10/09 02:03:29;;;;;;;6.40;4.05;;;11.40;99.90;;;10.61;100.00;101929.06;4184493;28;20033;-77
2023/10/09 02:05:33;;;;;;;6.20;3.75;;;11.30;99.90;;;10.61;100.00;101923.78;4184632;28;20489;-78
2023/10/09 02:07:58;;;;;;;;;;;11.30;99.90;;;10.54;100.00;101922.63;4184936;28;20108;-78
2023/10/09 02:09:56;;;;;;;7.30;3.90;;;11.30;99.90;;;10.55;100.00;101924.28;4184303;28;19988;-77
2023/10/09 02:11:57;;;;;;;6.47;4.05;;;11.30;99.90;;;10.52;100.00;101925.38;4185362;28;20037;-77
2023/10/09 02:13:59;;;;;;;8.38;4.07;;;11.20;99.90;;;10.49;100.00;101932.69;4184749;28;20025;-77
2023/10/09 02:20:30;;;;;;;7.50;3.45;;;11.10;99.90;;;10.43;100.00;101928.78;4184775;28;20029;-77
2023/10/09 02:22:34;;;;;;;6.68;3.63;;;11.20;99.90;;;10.40;100.00;101928.19;4183838;28;20504;-77
2023/10/09 02:29:03;;;;;;;8.00;3.83;;;11.00;99.90;;;10.17;100.00;101932.72;4185746;28;20025;-77
2023/10/09 02:31:12;;;;;;;6.90;3.58;;;10.90;99.90;;;10.11;100.00;101937.59;4200602;28;20112;-77
2023/10/09 02:33:27;;;;;;;8.32;3.83;;;10.90;99.90;;;10.03;100.00;101941.69;4185517;28;20068;-77
2023/10/09 02:35:29;;;;;;;7.28;3.92;;;10.80;99.90;;;10.02;100.00;101936.53;4184404;28;20488;-77
2023/10/09 02:37:29;;;;;;;9.35;3.95;;;10.80;99.90;;;10.08;100.00;101940.47;4184378;28;20024;-77
2023/10/09 02:39:36;;;;;;;5.10;3.35;;;10.80;99.90;;;10.03;100.00;101943.50;4185075;28;20531;-77
2023/10/09 02:41:49;;;;;;;5.65;3.58;;;10.80;99.90;;;10.00;100.00;101935.84;4183556;28;20051;-77
2023/10/09 02:43:55;;;;;;;6.43;3.75;;;10.70;99.90;;;9.90;100.00;101927.81;4180462;28;20060;-77
2023/10/09 02:45:56;;;;;;;7.75;3.97;;;10.70;99.90;;;9.93;100.00;101935.50;4167961;28;20033;-77
2023/10/09 02:47:57;;;;;;;6.22;3.53;;;10.70;99.90;;;9.93;100.00;101932.84;4185612;28;20025;-77
2023/10/09 02:50:09;;;;;;;6.25;3.10;;;10.60;99.90;;;9.89;100.00;101926.13;4185412;28;20107;-77
2023/10/09 02:52:17;;;;;;;9.82;5.10;;;10.60;99.90;;;9.91;100.00;101923.41;4185267;28;20106;-77
2023/10/09 02:54:18;;;;;;;5.70;3.38;;;10.60;99.90;;;9.95;100.00;101936.19;4184297;28;20505;-77
2023/10/09 02:56:24;;;;;;;5.78;3.42;;;10.60;99.90;;;9.98;100.00;101933.31;4185315;28;20025;-77
2023/10/09 02:58:25;;;;;;;5.65;3.47;;;10.70;99.90;;;10.05;100.00;101932.81;4184919;28;20029;-77
2023/10/09 03:00:31;;;;;;;8.45;4.18;;;10.70;99.90;;;10.09;100.00;101931.63;4185120;28;20079;-77
2023/10/09 03:02:32;;;;;;;7.07;4.10;;;10.80;99.90;;;10.09;100.00;101940.38;4185177;28;20074;-77
2023/10/09 03:04:33;;;;;;;7.30;4.22;;;10.80;99.90;;;10.05;100.00;101936.31;4185128;28;20420;-77
2023/10/09 03:06:40;;;;;;;8.40;4.32;;;10.70;99.90;;;10.06;100.00;101931.88;4185089;28;20021;-77
2023/10/09 03:08:41;;;;;;;5.65;4.30;;;10.70;99.90;;;10.06;100.00;101931.88;4184900;28;20029;-77
2023/10/09 03:10:41;;;;;;;5.35;3.50;;;10.80;99.90;;;10.08;100.00;101933.41;4167289;28;20028;-77
2023/10/09 03:12:43;;;;;;;7.13;4.00;;;10.70;99.90;;;10.02;100.00;101936.53;4184814;28;20493;-77
2023/10/09 03:14:44;;;;;;;6.32;3.80;;;10.70;99.90;;;9.94;100.00;101929.28;4185065;28;20021;-77
2023/10/09 03:16:45;;;;;;;5.93;3.42;;;10.70;99.90;;;9.91;100.00;101924.25;4170512;28;20033;-77
2023/10/09 03:18:52;;;;;;;8.60;3.60;;;10.60;99.90;;;9.87;100.00;101922.78;4183980;28;20036;-77
2023/10/09 03:20:53;;;;;;;5.30;3.55;;;10.60;99.90;;;9.85;100.00;101924.72;4177190;28;20025;-77
2023/10/09 03:22:54;;;;;;;5.40;3.55;;;10.60;99.90;;;9.85;100.00;101923.88;4181442;28;20041;-77
2023/10/09 03:24:55;;;;;;;6.95;3.42;;;10.60;99.90;;;9.82;100.00;101924.97;4184965;28;20032;-77
2023/10/09 03:26:56;;;;;;;7.50;3.80;;;10.50;99.90;;;9.82;100.00;101922.34;4166993;28;20018;-77
2023/10/09 03:29:00;;;;;;;6.60;3.85;;;10.50;99.90;;;9.84;100.00;101922.19;4177854;28;20047;-77
2023/10/09 03:31:02;;;;;;;5.55;3.22;;;10.50;99.90;;;9.84;100.00;101925.69;4185871;28;20029;-77
2023/10/09 03:33:04;;;;;;;6.75;3.95;;;10.50;99.90;;;9.80;100.00;101920.75;4188184;28;20025;-77
2023/10/09 03:35:06;;;;;;;7.05;3.40;;;10.50;99.90;;;9.78;100.00;101920.06;4188174;28;20404;-77
2023/10/09 03:37:21;;;;;;;9.93;4.07;;;10.50;99.90;;;9.75;100.00;101907.13;4186962;28;20021;-77
2023/10/09 03:41:42;;;;;;;6.32;3.50;;;10.50;99.90;;;9.72;100.00;101908.22;4187969;28;20060;-77
2023/10/09 03:43:43;;;;;;;5.97;2.95;;;10.50;99.90;;;9.72;100.00;101916.13;4186703;28;20075;-77
2023/10/09 03:45:52;;;;;;;6.18;2.97;;;10.50;99.90;;;9.72;100.00;101913.47;4185172;28;20025;-77
2023/10/09 03:47:57;;;;;;;6.75;3.63;;;10.40;99.90;;;9.68;100.00;101917.31;4203176;28;20024;-77
2023/10/09 03:50:02;;;;;;;10.88;4.15;;;10.40;99.90;;;9.65;100.00;101909.66;4202936;28;20075;-77
2023/10/09 03:52:03;;;;;;;8.07;3.97;;;10.40;99.90;;;9.63;100.00;101913.38;4186241;28;20028;-77
2023/10/09 03:54:07;;;;;;;6.20;3.22;;;10.40;99.90;;;9.58;100.00;101908.47;4186999;28;20040;-77
2023/10/09 03:56:12;;;;;;;5.05;3.50;;;10.30;99.90;;;9.61;100.00;101913.50;4186508;28;20544;-77
2023/10/09 03:58:14;;;;;;;4.95;3.25;;;10.30;99.90;;;9.60;100.00;101906.53;4183648;28;20041;-77
2023/10/09 04:00:17;;;;;;;6.28;3.20;;;10.30;99.90;;;9.59;100.00;101904.84;4187738;28;20060;-77
2023/10/09 04:02:18;;;;;;;4.97;3.63;;;10.30;99.90;;;9.61;100.00;101908.22;4187527;28;20029;-77
2023/10/09 04:04:22;;;;;;;7.35;3.30;;;10.30;99.90;;;9.61;100.00;101908.22;4187785;28;20033;-77
2023/10/09 04:06:28;;;;;;;7.30;3.53;;;10.30;99.90;;;9.63;100.00;101905.47;4186121;28;20024;-77
2023/10/09 04:08:30;;;;;;;5.70;3.50;;;10.30;99.90;;;9.66;100.00;101907.84;4185969;28;20462;-77
2023/10/09 04:10:43;;;;;;;6.63;3.53;;;10.30;99.90;;;9.66;100.00;101906.06;4175590;28;20021;-77
2023/10/09 04:12:44;;;;;;;6.63;3.17;;;10.30;99.90;;;9.63;100.00;101906.31;4187522;28;20481;-77
2023/10/09 04:14:53;;;;;;;10.15;3.90;;;10.30;99.90;;;9.60;100.00;101903.91;4186411;28;20059;-77
2023/10/09 04:17:32;;;;;;;6.32;3.45;;;10.40;99.90;;;9.58;100.00;101902.38;4173633;28;20032;-77
2023/10/09 04:19:24;;;;;;;5.10;3.20;;;10.30;99.90;;;9.58;100.00;101905.84;4182521;28;20044;-77
2023/10/09 04:21:36;;;;;;;6.35;3.20;;;10.30;99.90;;;9.55;100.00;101898.19;4184936;28;20025;-77
2023/10/09 04:23:59;;;;;;;6.80;3.70;;;10.30;99.90;;;9.51;100.00;101902.00;4185229;28;20592;-77
2023/10/09 04:25:59;;;;;;;5.07;3.28;;;10.30;99.90;;;9.47;100.00;101902.38;4183541;28;20493;-77
2023/10/09 04:28:09;;;;;;;8.13;3.63;;;10.20;99.90;;;9.40;100.00;101894.97;4200643;28;20052;-77
2023/10/09 04:30:15;;;;;;;4.95;3.28;;;10.20;99.90;;;9.42;100.00;101905.34;4175358;28;20076;-77
2023/10/09 04:32:16;;;;;;;5.55;3.53;;;10.20;99.90;;;9.41;100.00;101904.50;4186061;28;20071;-77
2023/10/09 04:34:22;;;;;;;6.03;3.97;;;10.20;99.90;;;9.40;100.00;101902.00;4187270;28;20029;-77
2023/10/09 04:36:26;;;;;;;6.45;3.10;;;10.20;99.90;;;9.45;100.00;101899.84;4185623;28;20393;-77
2023/10/09 04:38:27;;;;;;;5.60;3.40;;;10.20;99.90;;;9.45;100.00;101900.69;4177777;28;20040;-77
2023/10/09 04:40:48;;;;;;;7.00;3.90;;;10.20;99.90;;;9.45;100.00;101899.84;4187095;28;20154;-77
2023/10/09 04:42:58;;;;;;;6.70;3.83;;;10.20;99.90;;;9.42;100.00;101908.00;4168263;28;20444;-77
2023/10/09 04:45:18;;;;;;;6.63;3.50;;;10.20;99.90;;;9.41;100.00;101903.66;4176654;28;20017;-77
2023/10/09 04:47:19;;;;;;;7.75;3.63;;;10.20;99.90;;;9.40;100.00;101905.50;4183654;28;20032;-77
2023/10/09 04:49:27;;;;;;;5.13;3.13;;;10.10;99.90;;;9.40;100.00;101905.50;4185618;28;20083;-77
2023/10/09 04:51:36;;;;;;;5.93;3.58;;;10.20;99.90;;;9.36;100.00;101895.31;4178162;28;20040;-77
2023/10/09 04:53:43;;;;;;;6.07;3.13;;;10.20;99.90;;;9.34;100.00;101905.13;4185001;28;20484;-77
2023/10/09 04:55:53;;;;;;;6.50;3.63;;;10.10;99.90;;;9.33;100.00;101906.91;4184840;28;20033;-77
2023/10/09 04:58:01;;;;;;;7.65;4.05;;;10.10;99.90;;;9.37;100.00;101910.16;4177345;28;20025;-77
2023/10/09 05:00:05;;;;;;;7.05;3.75;;;10.10;99.90;;;9.40;100.00;101910.75;4186777;28;20029;-77
2023/10/09 05:02:18;;;;;;;6.68;3.60;;;10.10;99.90;;;9.39;100.00;101906.44;4186790;28;20563;-77
2023/10/09 05:04:34;;;;;;;5.72;3.50;;;10.10;99.90;;;9.37;100.00;101907.53;4186762;28;20033;-77
2023/10/09 05:06:42;;;;;;;5.82;3.15;;;10.10;99.90;;;9.33;100.00;101906.06;4186830;28;20111;-77
2023/10/09 05:08:45;;;;;;;8.10;3.83;;;10.10;99.90;;;9.30;100.00;101896.63;4171553;28;20024;-77
2023/10/09 05:13:02;;;;;;;8.20;3.58;;;10.00;99.90;;;9.30;100.00;101901.03;4186395;28;20028;-77
2023/10/09 05:15:09;;;;;;;7.57;3.72;;;10.00;99.90;;;9.31;100.00;101900.94;4184893;28;20033;-77
2023/10/09 05:17:15;;;;;;;7.30;3.83;;;10.00;99.90;;;9.31;100.00;101897.47;4202102;28;20125;-77
2023/10/09 05:19:33;;;;;;;8.02;3.80;;;10.00;99.90;;;9.28;100.00;101903.81;4179846;28;20085;-77
2023/10/09 05:24:42;;;;;;;6.50;3.60;;;10.00;99.90;;;9.28;100.00;101902.97;4185259;28;20517;-77
2023/10/09 05:26:26;;;;;;;5.97;3.70;;;10.00;99.90;;;9.25;100.00;101904.06;4179850;28;20060;-77
2023/10/09 05:29:19;;;;;;;7.70;4.25;;;10.00;99.90;;;9.29;100.00;101908.09;4174464;28;20032;-77
2023/10/09 05:30:55;;;;;;;6.47;3.85;;;10.00;99.90;;;9.28;100.00;101909.06;4183815;28;20484;-77
2023/10/09 05:33:27;;;;;;;7.30;4.50;;;10.00;99.90;;;9.30;100.00;101915.06;4183911;28;20419;-77
2023/10/09 05:35:29;;;;;;;7.70;4.13;;;10.00;99.90;;;9.31;100.00;101908.00;4177541;28;20043;-77
2023/10/09 05:37:32;;;;;;;6.15;3.90;;;10.00;99.90;;;9.33;100.00;101912.19;4186297;28;20025;-77
2023/10/09 05:39:43;;;;;;;7.72;4.28;;;10.00;99.90;;;9.37;100.00;101910.16;4185018;28;20041;-77
2023/10/09 05:46:08;;;;;;;6.15;4.10;;;10.10;99.90;;;9.33;100.00;101919.25;4185389;28;20067;-77
2023/10/09 05:55:19;;;;;;;8.18;5.60;;;10.00;99.90;;;9.32;100.00;101920.19;4184502;28;20061;-76
2023/10/09 06:04:17;;;;;;;8.05;4.53;;;10.10;99.90;;;9.51;100.00;101915.16;4185600;28;20579;-77
2023/10/09 06:06:32;;;;;;;6.75;4.50;;;10.20;99.90;;;9.51;100.00;101920.44;4178211;28;20480;-77
2023/10/09 06:10:43;;;;;;;10.52;4.57;;;10.20;99.90;;;9.45;100.00;101931.44;4185912;28;20029;-77
2023/10/09 06:14:57;;;;;;;6.95;3.80;;;10.20;99.90;;;9.39;100.00;101921.41;4185658;28;20017;-77
2023/10/09 06:17:18;;;;;;;4.88;3.50;;;10.20;99.90;;;9.37;100.00;101934.69;4182936;28;20037;-77
2023/10/09 06:19:26;;;;;;;9.68;4.25;;;10.10;99.90;;;9.35;100.00;101926.06;4179654;28;20052;-77
2023/10/09 06:22:09;;;;;;;6.10;3.92;;;10.10;99.90;;;9.31;100.00;101916.75;4184210;28;20024;-77
2023/10/09 06:24:14;;;;;;;8.90;5.53;;;10.10;99.90;;;9.34;100.00;101932.31;4177338;28;20121;-77
2023/10/09 06:26:24;;;;;;;8.93;4.65;;;10.10;99.90;;;9.39;100.00;101931.94;4185378;28;20029;-77
2023/10/09 06:28:32;;;;;;;8.50;5.13;;;10.10;99.90;;;9.42;100.00;101934.31;4183213;28;20048;-77
2023/10/09 06:30:35;;;;;;;8.02;4.70;;;10.10;99.90;;;9.46;100.00;101941.03;4167673;28;20030;-77
2023/10/09 06:32:37;;;;;;;7.28;4.50;;;10.20;99.90;;;9.47;100.00;101936.63;4180274;28;20480;-77
2023/10/09 06:34:44;;;;;;;7.13;4.93;;;10.20;99.90;;;9.48;100.00;101933.84;4185244;28;20036;-77
2023/10/09 06:36:52;;;;;;;10.05;4.90;;;10.20;99.90;;;9.48;100.00;101936.47;4184045;28;20028;-77
2023/10/09 06:39:50;;;;;;;6.57;4.03;;;10.20;99.90;;;9.46;100.00;101938.41;4185399;28;20029;-77
2023/10/09 06:41:34;;;;;;;7.70;4.80;;;10.20;99.90;;;9.45;100.00;101948.09;4184094;28;20409;-77
2023/10/09 06:43:42;;;;;;;7.63;4.70;;;10.20;99.90;;;9.40;100.00;101939.72;4185173;28;20041;-77
2023/10/09 06:45:44;;;;;;;8.20;4.55;;;10.20;99.90;;;9.37;100.00;101937.34;4184099;28;20020;-77
2023/10/09 06:47:56;;;;;;;6.28;4.18;;;10.10;99.90;;;9.39;100.00;101942.47;4185402;28;20025;-77
2023/10/09 06:52:57;;;;;;;7.03;4.80;;;10.10;99.90;;;9.30;100.00;101951.06;4170863;28;20048;-77
2023/10/09 06:54:50;;;;;;;7.97;4.80;;;10.10;99.90;;;9.28;100.00;101960.91;4184962;28;20453;-77
2023/10/09 06:58:55;;;;;;;7.28;4.00;;;10.00;99.90;;;9.22;100.00;101958.72;4183705;28;20028;-77
2023/10/09 07:03:11;;;;;;;8.23;3.92;;;9.90;99.90;;;9.21;100.00;101963.16;4183787;28;20029;-77
2023/10/09 07:05:17;;;;;;;5.47;3.30;;;10.00;99.90;;;9.21;100.00;101964.94;4182582;28;20499;-77
2023/10/09 07:07:20;;;;;;;7.10;4.05;;;9.90;99.90;;;9.23;100.00;101971.75;4167826;28;20031;-77
2023/10/09 07:09:21;;;;;;;6.73;3.90;;;10.00;99.90;;;9.25;100.00;101974.28;4183887;28;20512;-77
2023/10/09 07:11:56;;;;;;;6.20;3.90;;;10.00;99.90;;;9.28;100.00;101979.31;4180672;28;20028;-77
2023/10/09 07:13:52;;;;;;;5.55;3.58;;;10.00;99.90;;;9.28;100.00;101979.31;4169490;28;20043;-77
2023/10/09 07:18:19;;;;;;;5.18;3.47;;;10.00;99.90;;;9.32;100.00;101978.13;4183644;28;20056;-77
2023/10/09 07:20:45;;;;;;;7.63;4.20;;;10.10;99.90;;;9.36;100.00;101979.56;4185308;28;20029;-77
2023/10/09 07:23:13;;;;;;;5.00;3.53;;;10.10;99.90;;;9.36;100.00;101988.31;4170380;28;20063;-77
2023/10/09 07:25:15;;;;;;;5.65;3.65;;;10.10;99.90;;;9.41;100.00;101993.22;4170818;28;20029;-77
2023/10/09 07:27:48;;;;;;;5.88;3.08;;;10.10;99.90;;;9.46;100.00;101996.34;4177253;28;20048;-77
2023/10/09 07:29:49;;;;;;;5.43;2.95;;;10.20;99.90;;;9.51;100.00;102006.50;4182147;28;20025;-77
2023/10/09 07:31:57;;;;;;;5.95;3.80;;;10.20;99.90;;;9.53;100.00;102002.00;4174985;28;20485;-77
2023/10/09 07:33:58;;;;;;;5.30;3.30;;;10.30;99.90;;;9.57;100.00;102001.63;4183109;28;20036;-77
2023/10/09 07:36:07;;;;;;;6.75;3.50;;;10.30;99.90;;;9.60;100.00;102006.66;4182250;28;20028;-77
2023/10/09 07:38:19;;;;;;;5.63;3.33;;;10.30;99.90;;;9.63;100.00;102005.56;4200135;28;20039;-77
2023/10/09 07:40:31;;;;;;;6.07;3.85;;;10.30;99.90;;;9.70;100.00;102020.81;4199934;28;20049;-77
2023/10/09 07:43:04;;;;;;;9.85;3.97;;;10.40;99.90;;;9.78;100.00;102015.75;4199703;28;20404;-77
2023/10/09 07:44:57;;;;;;;6.65;3.88;;;10.50;99.90;;;9.85;100.00;102013.50;4183391;28;20037;-78
2023/10/09 07:47:17;;;;;;;6.68;4.00;;;10.60;99.90;;;9.89;100.00;102009.63;4166987;28;20035;-77
2023/10/09 07:49:25;;;;;;;7.72;4.07;;;10.60;99.90;;;9.96;100.00;102011.69;4183505;28;20377;-77
2023/10/09 07:51:32;;;;;;;6.80;4.45;;;10.70;99.90;;;10.09;100.00;102023.91;4182577;28;20527;-77
2023/10/09 07:53:43;;;;;;;6.70;4.43;;;10.70;99.90;;;10.14;100.00;102025.22;4180639;28;20040;-79
2023/10/09 07:55:55;;;;;;;6.43;4.10;;;10.80;99.90;;;10.25;100.00;102024.38;4184732;28;20100;-79
2023/10/09 07:57:56;;;;;;;8.63;5.30;;;10.90;99.90;;;10.34;100.00;102023.63;4184494;28;20021;-79
2023/10/09 08:00:12;;;;;;;10.02;5.90;;;11.10;99.90;;;10.46;100.00;102031.41;4184712;28;20022;-79
2023/10/09 08:02:16;;;;;;;9.30;5.30;;;11.10;99.90;;;10.56;100.00;102031.50;4184819;28;20195;-78
2023/10/09 08:04:47;;;;;;;8.68;4.88;;;11.20;99.90;;;10.70;100.00;102027.72;4184505;28;20094;-78
2023/10/09 08:06:48;;;;;;;9.65;4.80;;;11.40;99.90;;;10.79;100.00;102033.09;4182097;28;20025;-78
2023/10/09 08:15:56;;;;;;;7.78;4.50;;;11.70;99.90;;;11.10;100.00;102037.53;4184486;28;20062;-78
2023/10/09 08:18:09;;;;;;;9.38;5.50;;;11.80;99.90;;;11.23;100.00;102044.44;4183275;28;20036;-79
2023/10/09 08:20:11;;;;;;;7.63;5.40;;;12.00;99.90;;;11.35;100.00;102040.75;4158783;28;20025;-80
2023/10/09 08:27:27;;;;;;;10.82;6.18;;;12.20;99.90;;;11.65;100.00;102054.00;4174888;28;20037;-78
2023/10/09 08:29:19;;;;;;;9.35;5.75;;;12.30;99.90;;;11.78;100.00;102059.09;4183506;28;20162;-78
2023/10/09 08:31:45;;;;;;;8.30;5.78;;;12.50;99.90;;;11.89;100.00;102051.91;4186242;28;20028;-78
2023/10/09 08:33:56;;;;;;;9.50;5.75;;;12.60;99.90;;;12.00;100.00;102051.00;4183162;28;20033;-79
2023/10/09 08:36:07;;;;;;;8.32;5.70;;;12.70;99.90;;;12.13;100.00;102060.38;4195457;28;20535;-78
2023/10/09 08:38:08;;;;;;;12.40;6.43;;;12.80;99.90;;;12.24;100.00;102064.75;4175500;28;20108;-79
2023/10/09 08:40:10;;;;;;;8.77;5.22;;;12.90;99.90;;;12.33;100.00;102061.28;4187164;28;20045;-79
2023/10/09 08:42:11;;;;;;;10.30;6.40;;;13.00;99.90;;;12.42;100.00;102062.28;4185781;28;20069;-79
2023/10/09 08:44:14;;;;;;;10.45;6.25;;;13.20;99.90;;;12.54;100.00;102069.13;4185896;28;20029;-79
2023/10/09 08:46:18;;;;;;;8.50;5.55;;;13.20;99.90;;;12.63;100.00;102073.59;4184735;28;20450;-79
2023/10/09 08:48:26;;;;;;;10.10;5.60;;;13.40;99.90;;;12.71;100.00;102071.94;4169571;28;20148;-79
2023/10/09 08:50:28;;;;;;;7.70;5.07;;;13.50;99.90;;;12.80;100.00;102074.72;4181062;28;20060;-79
2023/10/09 08:52:29;;;;;;;9.88;5.45;;;13.50;99.90;;;12.87;100.00;102068.75;4185002;28;20021;-79
2023/10/09 08:54:33;;;;;;;9.48;5.70;;;13.60;99.90;;;12.98;100.00;102070.44;4202117;28;20067;-79
2023/10/09 08:56:33;;;;;;;7.68;5.30;;;13.70;99.90;;;13.05;100.00;102067.06;4186265;28;20032;-78
2023/10/09 08:58:38;;;;;;;8.55;5.50;;;13.80;99.90;;;13.12;100.00;102068.22;4187211;28;20025;-79
2023/10/09 09:00:45;;;;;;;8.27;4.25;;;13.90;99.90;;;13.20;100.00;102065.69;4187296;28;20060;-79
2023/10/09 09:02:47;;;;;;;6.68;5.18;;;14.00;99.90;;;13.29;100.00;102062.19;4186956;28;20033;-79
2023/10/09 09:04:50;;;;;;;6.90;4.90;;;14.00;99.90;;;13.39;100.00;102067.50;4185691;28;20028;-79
2023/10/09 09:06:51;;;;;;;7.70;4.93;;;14.20;99.90;;;13.48;100.00;102068.47;4185418;28;20021;-80
2023/10/09 09:08:59;;;;;;;9.18;5.18;;;14.30;99.90;;;13.60;100.00;102070.81;4173488;28;20495;-81
2023/10/09 09:11:17;;;;;;;6.57;4.60;;;14.40;99.90;;;13.72;100.00;102067.00;4184905;28;20484;-80
2023/10/09 09:13:18;;;;;;;7.22;4.22;;;14.50;99.90;;;13.79;100.00;102069.94;4184228;28;20088;-80
2023/10/09 09:15:20;;;;;;;8.40;4.70;;;14.60;99.90;;;13.87;100.00;102064.72;4185667;28;20111;-80
2023/10/09 09:17:33;;;;;;;8.10;5.03;;;14.70;99.90;;;14.02;100.00;102071.22;4185259;28;20028;-80
2023/10/09 09:19:37;;;;;;;9.07;4.47;;;14.80;99.90;;;14.14;100.00;102069.22;4185154;28;20029;-80
2023/10/09 09:21:54;;;;;;;12.55;5.13;;;14.90;99.90;;;14.27;100.00;102069.72;4185975;28;20057;-80
2023/10/09 09:23:58;;;;;;;11.90;5.15;;;15.10;99.90;;;14.39;100.00;102066.72;4184781;28;20164;-81
2023/10/09 09:26:01;;;;;;;20.67;5.65;;;15.20;99.90;;;14.51;100.00;102066.56;4185173;28;20017;-81
2023/10/09 09:28:09;;;;;;;12.80;4.28;;;15.30;99.90;;;14.62;100.00;102069.81;4183842;28;20475;-81
2023/10/09 09:30:33;;;;;;;9.23;4.97;;;15.40;99.90;;;14.77;100.00;102062.19;4174950;28;20017;-81
2023/10/09 09:32:36;;;;;;;16.13;5.15;;;15.60;99.90;;;14.90;100.00;102065.31;4185213;28;20025;-80
2023/10/09 09:34:49;;;;;;;18.60;4.90;;;15.70;99.90;;;15.06;100.00;102062.78;4185050;28;20025;-80
2023/10/09 09:36:59;;;;;;;9.52;4.95;;;15.80;99.90;;;15.16;100.00;102063.53;4177832;28;20041;-81
2023/10/09 09:39:04;;;;;;;10.40;4.95;;;15.90;99.90;;;15.26;100.00;102058.13;4186283;28;20041;-80
2023/10/09 09:41:07;;;;;;;9.13;4.78;;;16.10;99.90;;;15.37;100.00;102056.06;4184481;28;20041;-81
2023/10/09 09:43:21;;;;;;;10.80;5.05;;;16.20;99.90;;;15.53;100.00;102062.50;4184650;28;20082;-81
2023/10/09 09:45:24;;;;;;;9.45;5.63;;;16.30;99.90;;;15.62;100.00;102065.06;4178409;28;20025;-81
2023/10/09 09:47:26;;;;;;;12.77;4.85;;;16.40;99.90;;;15.76;100.00;102051.19;4183467;28;20104;-81
2023/10/09 09:49:31;;;;;;;8.75;4.63;;;16.50;99.90;;;15.89;100.00;102056.91;4185047;28;20021;-81
2023/10/09 09:51:33;;;;;;;8.82;4.53;;;16.60;99.90;;;15.98;100.00;102052.44;4178564;28;20108;-80